createdAt,value
2023-11-23T00:00:07.489Z,56.77
2023-11-23T00:00:28.069Z,56.66
2023-11-23T00:00:48.677Z,56.49
2023-11-23T00:01:09.226Z,56.51
2023-11-23T00:01:29.859Z,56.37
2023-11-23T00:01:50.450Z,56.37
2023-11-23T00:02:10.990Z,56.54
2023-11-23T00:02:31.516Z,57.03
2023-11-23T00:02:52.198Z,56.24
2023-11-23T00:03:12.648Z,56.3
2023-11-23T00:03:33.195Z,56.51
2023-11-23T00:03:53.808Z,56.42
2023-11-23T00:04:14.482Z,56.83
2023-11-23T00:04:34.972Z,56.72
2023-11-23T00:04:55.495Z,56.88
2023-11-23T00:05:16.088Z,57.05
2023-11-23T00:05:36.720Z,56.85
2023-11-23T00:05:57.252Z,56.89
2023-11-23T00:06:17.877Z,57.09
2023-11-23T00:06:38.390Z,57.02
2023-11-23T00:06:58.912Z,57.22
2023-11-23T00:07:19.537Z,56.71
2023-11-23T00:07:40.096Z,56.81
2023-11-23T00:08:00.663Z,57.13
2023-11-23T00:08:21.220Z,57.06
2023-11-23T00:08:41.800Z,56.98
2023-11-23T00:09:02.482Z,57.25
2023-11-23T00:09:22.926Z,56.72
2023-11-23T00:09:43.514Z,56.37
2023-11-23T00:10:04.076Z,56.48
2023-11-23T00:10:24.664Z,56.93
2023-11-23T00:10:45.288Z,56.83
2023-11-23T00:11:05.782Z,56.6
2023-11-23T00:11:26.419Z,56.33
2023-11-23T00:11:46.960Z,56.32
2023-11-23T00:12:07.554Z,57.57
2023-11-23T00:12:28.096Z,56.89
2023-11-23T00:12:48.644Z,56.66
2023-11-23T00:13:09.254Z,56.83
2023-11-23T00:13:29.787Z,56.62
2023-11-23T00:13:50.621Z,56.79
2023-11-23T00:14:10.984Z,56.67
2023-11-23T00:14:31.541Z,56.75
2023-11-23T00:14:52.118Z,56.87
2023-11-23T00:15:12.693Z,56.87
2023-11-23T00:15:33.255Z,56.63
2023-11-23T00:15:53.811Z,56.49
2023-11-23T00:16:14.393Z,56.53
2023-11-23T00:16:34.967Z,56.53
2023-11-23T00:16:55.610Z,56.88
2023-11-23T00:17:16.088Z,57.05
2023-11-23T00:17:36.825Z,56.74
2023-11-23T00:17:57.287Z,56.29
2023-11-23T00:18:17.872Z,56.54
2023-11-23T00:18:38.440Z,56.51
2023-11-23T00:18:59.019Z,56.51
2023-11-23T00:19:19.545Z,56.51
2023-11-23T00:19:40.131Z,56.99
2023-11-23T00:20:00.907Z,56.51
2023-11-23T00:20:21.244Z,56.65
2023-11-23T00:20:41.898Z,56.86
2023-11-23T00:21:02.448Z,56.93
2023-11-23T00:21:22.980Z,57.21
2023-11-23T00:21:43.547Z,56.81
2023-11-23T00:22:04.124Z,57.23
2023-11-23T00:22:24.686Z,56.97
2023-11-23T00:22:45.311Z,57.12
2023-11-23T00:23:05.851Z,57.49
2023-11-23T00:23:26.403Z,57.91
2023-11-23T00:23:46.991Z,57
2023-11-23T00:24:07.635Z,57.53
2023-11-23T00:24:28.113Z,57.04
2023-11-23T00:24:48.729Z,56.81
2023-11-23T00:25:09.274Z,56.61
2023-11-23T00:25:29.847Z,57.44
2023-11-23T00:25:50.426Z,57.06
2023-11-23T00:26:11.014Z,56.96
2023-11-23T00:26:31.553Z,57.59
2023-11-23T00:26:52.195Z,57.22
2023-11-23T00:27:12.739Z,56.94
2023-11-23T00:27:33.256Z,57.16
2023-11-23T00:27:53.840Z,57.48
2023-11-23T00:28:14.436Z,56.96
2023-11-23T00:28:35.014Z,56.62
2023-11-23T00:28:55.565Z,56.57
2023-11-23T00:29:16.137Z,56.42
2023-11-23T00:29:36.742Z,56.8
2023-11-23T00:30:13.818Z,57.09
2023-11-23T00:30:34.307Z,57.28
2023-11-23T00:30:54.895Z,57.39
2023-11-23T00:31:15.477Z,56.94
2023-11-23T00:31:36.080Z,57.19
2023-11-23T00:31:56.650Z,57.16
2023-11-23T00:32:17.179Z,57
2023-11-23T00:32:37.807Z,57.11
2023-11-23T00:33:19.034Z,57.24
2023-11-23T00:33:39.687Z,57.31
2023-11-23T00:34:00.205Z,57.03
2023-11-23T00:34:20.661Z,57.07
2023-11-23T00:34:41.266Z,57.19
2023-11-23T00:35:01.770Z,56.86
2023-11-23T00:35:22.336Z,56.77
2023-11-23T00:35:42.938Z,56.71
2023-11-23T00:36:03.577Z,56.68
2023-11-23T00:36:24.052Z,57.3
2023-11-23T00:36:44.617Z,57.46
2023-11-23T00:37:05.202Z,56.67
2023-11-23T00:37:25.815Z,56.53
2023-11-23T00:37:46.340Z,56.2
2023-11-23T00:38:06.944Z,56.1
2023-11-23T00:38:27.484Z,56.21
2023-11-23T00:38:48.071Z,56.89
2023-11-23T00:39:08.695Z,56.38
2023-11-23T00:39:29.207Z,56.55
2023-11-23T00:39:49.794Z,56.16
2023-11-23T00:40:10.360Z,56.13
2023-11-23T00:40:30.943Z,56.22
2023-11-23T00:40:51.490Z,56.14
2023-11-23T00:41:12.094Z,56.41
2023-11-23T00:41:32.642Z,56.31
2023-11-23T00:41:53.276Z,56.26
2023-11-23T00:42:13.858Z,56.02
2023-11-23T00:42:34.367Z,56.2
2023-11-23T00:42:54.962Z,56.01
2023-11-23T00:43:15.511Z,56.02
2023-11-23T00:43:36.096Z,56
2023-11-23T00:43:56.640Z,56.32
2023-11-23T00:44:17.225Z,56.47
2023-11-23T00:44:37.832Z,56.45
2023-11-23T00:44:58.388Z,55.95
2023-11-23T00:45:19.143Z,55.46
2023-11-23T00:45:39.503Z,55.87
2023-11-23T00:46:00.103Z,56.12
2023-11-23T00:46:20.645Z,56.09
2023-11-23T00:46:41.316Z,55.89
2023-11-23T00:47:01.904Z,55.78
2023-11-23T00:47:22.517Z,55.9
2023-11-23T00:47:42.990Z,55.95
2023-11-23T00:48:03.708Z,56.41
2023-11-23T00:48:24.248Z,56.11
2023-11-23T00:48:44.744Z,56.29
2023-11-23T00:49:05.249Z,55.65
2023-11-23T00:49:25.801Z,56.03
2023-11-23T00:49:46.380Z,56.01
2023-11-23T00:50:06.960Z,55.62
2023-11-23T00:50:27.560Z,55.62
2023-11-23T00:50:48.149Z,56.21
2023-11-23T00:51:08.753Z,56.14
2023-11-23T00:51:29.237Z,56.48
2023-11-23T00:51:49.818Z,56.36
2023-11-23T00:52:10.377Z,56.35
2023-11-23T00:52:30.955Z,56.64
2023-11-23T00:52:51.550Z,56.63
2023-11-23T00:53:12.110Z,56.17
2023-11-23T00:53:32.657Z,56.26
2023-11-23T00:53:53.295Z,56.35
2023-11-23T00:54:13.853Z,56.58
2023-11-23T00:54:34.407Z,56.29
2023-11-23T00:54:55.028Z,55.87
2023-11-23T00:55:15.559Z,56.19
2023-11-23T00:55:36.099Z,55.86
2023-11-23T00:55:56.718Z,55.96
2023-11-23T00:56:17.247Z,55.98
2023-11-23T00:56:37.861Z,55.99
2023-11-23T00:56:58.466Z,55.74
2023-11-23T00:57:19.028Z,56.04
2023-11-23T00:57:39.574Z,55.94
2023-11-23T00:58:01.711Z,56.15
2023-11-23T00:58:20.701Z,56.25
2023-11-23T00:58:41.255Z,56.13
2023-11-23T00:59:01.831Z,56.24
2023-11-23T00:59:22.422Z,56.69
2023-11-23T00:59:43.039Z,56.63
2023-11-23T01:00:03.639Z,56.53
2023-11-23T01:00:24.209Z,56.76
2023-11-23T01:00:44.740Z,56.65
2023-11-23T01:01:05.394Z,56.69
2023-11-23T01:01:26.052Z,56.44
2023-11-23T01:01:46.956Z,56.14
2023-11-23T01:02:07.254Z,56.39
2023-11-23T01:02:27.636Z,56.36
2023-11-23T01:02:48.336Z,56.06
2023-11-23T01:03:09.027Z,55.95
2023-11-23T01:03:29.445Z,56.22
2023-11-23T01:03:49.981Z,56.29
2023-11-23T01:04:10.512Z,56.47
2023-11-23T01:04:31.001Z,56.04
2023-11-23T01:04:51.574Z,55.87
2023-11-23T01:05:12.174Z,56
2023-11-23T01:05:32.727Z,55.95
2023-11-23T01:05:53.471Z,55.96
2023-11-23T01:06:13.850Z,55.96
2023-11-23T01:06:34.416Z,55.91
2023-11-23T01:06:55.045Z,56.17
2023-11-23T01:07:15.559Z,56.4
2023-11-23T01:07:36.192Z,56.14
2023-11-23T01:07:56.755Z,56.09
2023-11-23T01:08:17.346Z,55.88
2023-11-23T01:08:37.901Z,55.67
2023-11-23T01:08:58.526Z,55.7
2023-11-23T01:09:19.033Z,55.61
2023-11-23T01:09:39.579Z,55.53
2023-11-23T01:10:00.276Z,55.88
2023-11-23T01:10:20.740Z,55.56
2023-11-23T01:10:41.295Z,55.62
2023-11-23T01:11:01.863Z,55.6
2023-11-23T01:11:22.455Z,55.71
2023-11-23T01:11:43.048Z,55.85
2023-11-23T01:12:03.718Z,55.68
2023-11-23T01:12:24.193Z,55.78
2023-11-23T01:12:44.729Z,56.23
2023-11-23T01:13:05.350Z,55.88
2023-11-23T01:13:46.519Z,56.29
2023-11-23T01:14:07.062Z,56.57
2023-11-23T01:14:27.684Z,56.83
2023-11-23T01:14:48.192Z,56.6
2023-11-23T01:15:08.745Z,56.3
2023-11-23T01:15:29.351Z,56.35
2023-11-23T01:15:49.887Z,56.22
2023-11-23T01:16:10.458Z,56.37
2023-11-23T01:16:31.046Z,56.14
2023-11-23T01:16:51.685Z,56.49
2023-11-23T01:17:12.181Z,56.58
2023-11-23T01:17:32.765Z,56.51
2023-11-23T01:17:53.399Z,56.37
2023-11-23T01:18:14.018Z,56.64
2023-11-23T01:18:34.550Z,56.29
2023-11-23T01:18:55.059Z,56.05
2023-11-23T01:19:15.611Z,55.77
2023-11-23T01:19:36.187Z,55.78
2023-11-23T01:19:56.740Z,56.16
2023-11-23T01:20:17.323Z,56.7
2023-11-23T01:20:37.993Z,56.6
2023-11-23T01:20:58.542Z,56
2023-11-23T01:21:19.052Z,55.95
2023-11-23T01:21:39.606Z,56.03
2023-11-23T01:22:00.242Z,56.17
2023-11-23T01:22:20.750Z,56.42
2023-11-23T01:22:41.349Z,56.1
2023-11-23T01:23:01.918Z,56.22
2023-11-23T01:23:22.485Z,55.78
2023-11-23T01:23:43.113Z,56.68
2023-11-23T01:24:03.655Z,56.46
2023-11-23T01:24:24.202Z,56.33
2023-11-23T01:24:44.788Z,56.14
2023-11-23T01:25:05.336Z,56.42
2023-11-23T01:25:25.896Z,56.34
2023-11-23T01:25:46.502Z,56.46
2023-11-23T01:26:07.093Z,56.71
2023-11-23T01:26:27.656Z,56.5
2023-11-23T01:26:48.209Z,56.77
2023-11-23T01:27:08.840Z,56.79
2023-11-23T01:27:29.355Z,56.73
2023-11-23T01:27:49.924Z,56.67
2023-11-23T01:28:10.499Z,56.55
2023-11-23T01:28:31.118Z,56.65
2023-11-23T01:28:51.656Z,56.61
2023-11-23T01:29:12.205Z,56.34
2023-11-23T01:29:32.805Z,56.31
2023-11-23T01:29:53.377Z,56.67
2023-11-23T01:30:13.937Z,56.64
2023-11-23T01:30:34.491Z,56.52
2023-11-23T01:30:55.074Z,56.15
2023-11-23T01:31:15.639Z,56.53
2023-11-23T01:31:36.225Z,56.7
2023-11-23T01:31:56.772Z,56.83
2023-11-23T01:32:17.378Z,57.7
2023-11-23T01:32:38.030Z,57.57
2023-11-23T01:32:58.631Z,56.51
2023-11-23T01:33:19.401Z,56.62
2023-11-23T01:33:39.776Z,56.7
2023-11-23T01:34:00.364Z,56.71
2023-11-23T01:34:20.822Z,56.82
2023-11-23T01:34:41.363Z,56.98
2023-11-23T01:35:01.971Z,57.04
2023-11-23T01:35:22.493Z,56.88
2023-11-23T01:35:43.126Z,56.8
2023-11-23T01:36:03.729Z,57.26
2023-11-23T01:36:24.235Z,57.06
2023-11-23T01:36:44.807Z,56.83
2023-11-23T01:37:05.367Z,56.56
2023-11-23T01:37:25.960Z,56.7
2023-11-23T01:37:46.534Z,56.9
2023-11-23T01:38:07.083Z,57.01
2023-11-23T01:38:27.649Z,57.09
2023-11-23T01:39:04.757Z,57.32
2023-11-23T01:39:25.319Z,57.16
2023-11-23T01:39:45.857Z,57.16
2023-11-23T01:40:06.471Z,57.4
2023-11-23T01:40:27.043Z,57.2
2023-11-23T01:40:47.658Z,57.32
2023-11-23T01:41:08.150Z,57.79
2023-11-23T01:41:28.705Z,57.53
2023-11-23T01:41:49.366Z,57.46
2023-11-23T01:42:09.876Z,57.56
2023-11-23T01:42:30.440Z,57.51
2023-11-23T01:42:51.022Z,57.04
2023-11-23T01:43:11.638Z,57.35
2023-11-23T01:43:32.168Z,56.71
2023-11-23T01:43:52.773Z,56.43
2023-11-23T01:44:13.289Z,56.54
2023-11-23T01:44:33.915Z,56.5
2023-11-23T01:44:54.511Z,56.53
2023-11-23T01:45:15.046Z,56.44
2023-11-23T01:45:35.612Z,56.38
2023-11-23T01:45:56.192Z,56.76
2023-11-23T01:46:16.768Z,56.53
2023-11-23T01:46:37.311Z,56.77
2023-11-23T01:46:57.881Z,56.85
2023-11-23T01:47:18.450Z,57.15
2023-11-23T01:47:39.205Z,56.87
2023-11-23T01:47:59.664Z,57.18
2023-11-23T01:48:20.247Z,57.13
2023-11-23T01:48:40.848Z,56.82
2023-11-23T01:49:01.305Z,57.11
2023-11-23T01:49:21.898Z,56.99
2023-11-23T01:49:42.462Z,56.85
2023-11-23T01:50:03.019Z,56.55
2023-11-23T01:50:23.601Z,56.69
2023-11-23T01:50:44.216Z,56.72
2023-11-23T01:51:04.827Z,56.81
2023-11-23T01:51:25.317Z,56.55
2023-11-23T01:51:45.916Z,56.75
2023-11-23T01:52:06.505Z,57
2023-11-23T01:52:27.052Z,57.56
2023-11-23T01:52:47.624Z,56.95
2023-11-23T01:53:08.170Z,57.21
2023-11-23T01:53:28.766Z,57.07
2023-11-23T01:54:09.960Z,57.41
2023-11-23T01:54:30.496Z,57.28
2023-11-23T01:54:51.018Z,57.16
2023-11-23T01:55:11.605Z,56.95
2023-11-23T01:55:32.194Z,56.45
2023-11-23T01:55:52.753Z,56.48
2023-11-23T01:56:13.323Z,56.71
2023-11-23T01:56:33.942Z,56.61
2023-11-23T01:56:54.566Z,56.73
2023-11-23T01:57:15.055Z,56.77
2023-11-23T01:57:35.653Z,56.62
2023-11-23T01:57:56.321Z,56.53
2023-11-23T01:58:16.811Z,57.08
2023-11-23T01:58:37.354Z,56.76
2023-11-23T01:58:57.921Z,57.05
2023-11-23T01:59:18.469Z,57.23
2023-11-23T01:59:39.124Z,56.94
2023-11-23T01:59:59.784Z,56.8
2023-11-23T02:00:20.250Z,56.78
2023-11-23T02:00:40.794Z,56.91
2023-11-23T02:01:01.360Z,56.8
2023-11-23T02:01:21.951Z,57.12
2023-11-23T02:01:42.504Z,57.51
2023-11-23T02:02:03.152Z,57.48
2023-11-23T02:02:23.688Z,57.24
2023-11-23T02:02:44.387Z,57.46
2023-11-23T02:03:04.829Z,57.44
2023-11-23T02:03:25.416Z,57.45
2023-11-23T02:03:46.029Z,57.2
2023-11-23T02:04:06.589Z,57.05
2023-11-23T02:04:27.101Z,57.27
2023-11-23T02:04:47.637Z,57.41
2023-11-23T02:05:08.265Z,57.45
2023-11-23T02:05:28.807Z,57.97
2023-11-23T02:05:49.394Z,56.97
2023-11-23T02:06:09.953Z,57.47
2023-11-23T02:06:30.520Z,57.21
2023-11-23T02:06:51.073Z,57.03
2023-11-23T02:07:11.643Z,57.01
2023-11-23T02:07:32.207Z,56.89
2023-11-23T02:07:52.812Z,56.94
2023-11-23T02:08:13.393Z,57.45
2023-11-23T02:08:33.952Z,57.49
2023-11-23T02:08:54.566Z,57.6
2023-11-23T02:09:15.092Z,57.3
2023-11-23T02:09:35.643Z,57.2
2023-11-23T02:09:56.413Z,57.21
2023-11-23T02:10:16.808Z,57.14
2023-11-23T02:10:37.379Z,57.27
2023-11-23T02:10:57.992Z,56.89
2023-11-23T02:11:18.524Z,57.07
2023-11-23T02:11:39.102Z,57.32
2023-11-23T02:11:59.685Z,56.84
2023-11-23T02:12:20.242Z,57.11
2023-11-23T02:12:40.806Z,56.9
2023-11-23T02:13:01.376Z,56.79
2023-11-23T02:13:21.965Z,57.07
2023-11-23T02:13:42.544Z,56.62
2023-11-23T02:14:03.119Z,56.82
2023-11-23T02:14:23.668Z,56.95
2023-11-23T02:14:44.244Z,57.03
2023-11-23T02:15:04.903Z,56.9
2023-11-23T02:15:25.410Z,56.82
2023-11-23T02:15:46.046Z,56.87
2023-11-23T02:16:06.608Z,57.11
2023-11-23T02:16:27.167Z,57.03
2023-11-23T02:16:47.666Z,56.97
2023-11-23T02:17:08.249Z,57.09
2023-11-23T02:17:28.854Z,56.5
2023-11-23T02:17:49.435Z,56.35
2023-11-23T02:18:10.157Z,56.8
2023-11-23T02:18:30.570Z,56.71
2023-11-23T02:18:51.151Z,56.52
2023-11-23T02:19:11.682Z,56.56
2023-11-23T02:19:32.260Z,56.8
2023-11-23T02:19:52.867Z,57.01
2023-11-23T02:20:13.427Z,57.01
2023-11-23T02:20:33.971Z,57.44
2023-11-23T02:20:54.584Z,57.38
2023-11-23T02:21:15.172Z,57.23
2023-11-23T02:21:35.680Z,57.43
2023-11-23T02:21:56.275Z,57.88
2023-11-23T02:22:16.832Z,57.16
2023-11-23T02:22:37.406Z,57.4
2023-11-23T02:22:57.997Z,57.02
2023-11-23T02:23:18.568Z,56.96
2023-11-23T02:23:39.148Z,56.96
2023-11-23T02:23:59.706Z,57.2
2023-11-23T02:24:20.327Z,57.1
2023-11-23T02:24:40.851Z,57.21
2023-11-23T02:25:01.424Z,57.13
2023-11-23T02:25:21.972Z,57.16
2023-11-23T02:25:42.556Z,57.44
2023-11-23T02:26:03.151Z,57.36
2023-11-23T02:26:23.690Z,57.34
2023-11-23T02:26:44.285Z,57.39
2023-11-23T02:27:04.906Z,57.62
2023-11-23T02:27:25.425Z,57.29
2023-11-23T02:27:45.986Z,57.14
2023-11-23T02:28:06.599Z,57.35
2023-11-23T02:28:27.164Z,57.5
2023-11-23T02:28:47.706Z,57.41
2023-11-23T02:29:08.280Z,57.46
2023-11-23T02:29:28.811Z,57.24
2023-11-23T02:29:49.447Z,57.84
2023-11-23T02:30:10.177Z,57.55
2023-11-23T02:30:30.568Z,57.26
2023-11-23T02:30:51.146Z,57.53
2023-11-23T02:31:11.716Z,56.94
2023-11-23T02:31:32.364Z,57.04
2023-11-23T02:31:52.848Z,57.25
2023-11-23T02:32:13.454Z,57.2
2023-11-23T02:32:34.362Z,57.24
2023-11-23T02:32:54.753Z,57.2
2023-11-23T02:33:15.258Z,57.48
2023-11-23T02:33:35.792Z,57.43
2023-11-23T02:33:56.336Z,57.63
2023-11-23T02:34:16.880Z,57.66
2023-11-23T02:34:37.447Z,57.68
2023-11-23T02:34:58.071Z,57.79
2023-11-23T02:35:18.605Z,57.37
2023-11-23T02:35:39.189Z,57.24
2023-11-23T02:35:59.750Z,57.13
2023-11-23T02:36:20.340Z,57.61
2023-11-23T02:36:40.865Z,57.53
2023-11-23T02:37:01.447Z,57.32
2023-11-23T02:37:22.030Z,57.34
2023-11-23T02:37:42.575Z,57.36
2023-11-23T02:38:03.157Z,57.6
2023-11-23T02:38:23.722Z,57.8
2023-11-23T02:38:44.329Z,57.93
2023-11-23T02:39:04.941Z,57.89
2023-11-23T02:39:25.482Z,57.61
2023-11-23T02:39:46.017Z,57.71
2023-11-23T02:40:06.641Z,57.66
2023-11-23T02:40:27.158Z,57.27
2023-11-23T02:40:47.731Z,57.49
2023-11-23T02:41:08.312Z,57.66
2023-11-23T02:41:28.918Z,57.6
2023-11-23T02:41:49.572Z,57.55
2023-11-23T02:42:10.088Z,57.67
2023-11-23T02:42:30.596Z,57.94
2023-11-23T02:42:51.201Z,57.86
2023-11-23T02:43:11.731Z,57.69
2023-11-23T02:43:32.324Z,57.65
2023-11-23T02:43:52.882Z,57.94
2023-11-23T02:44:13.473Z,57.83
2023-11-23T02:44:34.041Z,57.54
2023-11-23T02:44:54.660Z,57.62
2023-11-23T02:45:15.215Z,57.81
2023-11-23T02:45:35.811Z,57.92
2023-11-23T02:45:56.389Z,57.62
2023-11-23T02:46:16.972Z,57.99
2023-11-23T02:46:37.467Z,57.64
2023-11-23T02:46:58.047Z,58.01
2023-11-23T02:47:18.622Z,58
2023-11-23T02:47:55.827Z,57.89
2023-11-23T02:48:16.340Z,57.5
2023-11-23T02:48:36.940Z,57.44
2023-11-23T02:48:57.395Z,57.55
2023-11-23T02:49:17.984Z,57.42
2023-11-23T02:49:38.529Z,57.78
2023-11-23T02:49:59.290Z,57.47
2023-11-23T02:50:19.685Z,57.96
2023-11-23T02:50:40.241Z,57.83
2023-11-23T02:51:00.851Z,57.49
2023-11-23T02:51:21.427Z,57.75
2023-11-23T02:51:41.968Z,57.66
2023-11-23T02:52:02.550Z,57.74
2023-11-23T02:52:23.100Z,57.56
2023-11-23T02:52:43.676Z,57.53
2023-11-23T02:53:04.251Z,57.83
2023-11-23T02:53:24.866Z,57.41
2023-11-23T02:53:45.481Z,57.73
2023-11-23T02:54:06.024Z,57.74
2023-11-23T02:54:26.586Z,57.48
2023-11-23T02:54:47.103Z,57.38
2023-11-23T02:55:07.756Z,57.25
2023-11-23T02:55:28.270Z,57.46
2023-11-23T02:55:48.818Z,58
2023-11-23T02:56:09.482Z,57.96
2023-11-23T02:56:29.994Z,57.86
2023-11-23T02:56:50.567Z,58.36
2023-11-23T02:57:11.134Z,58.2
2023-11-23T02:57:31.714Z,58.14
2023-11-23T02:57:52.244Z,58.09
2023-11-23T02:58:12.873Z,58
2023-11-23T02:58:33.423Z,57.63
2023-11-23T02:58:53.990Z,57.32
2023-11-23T02:59:14.588Z,57.18
2023-11-23T02:59:35.134Z,57.25
2023-11-23T02:59:55.844Z,57.67
2023-11-23T03:00:16.398Z,57.91
2023-11-23T03:00:36.852Z,57.97
2023-11-23T03:00:57.460Z,58.13
2023-11-23T03:01:18.089Z,58.32
2023-11-23T03:01:38.639Z,58.17
2023-11-23T03:01:59.261Z,58.21
2023-11-23T03:02:19.837Z,58.09
2023-11-23T03:02:40.300Z,58.26
2023-11-23T03:03:00.988Z,58.37
2023-11-23T03:03:21.525Z,58.12
2023-11-23T03:03:42.089Z,58.19
2023-11-23T03:04:02.646Z,58.2
2023-11-23T03:04:23.186Z,57.93
2023-11-23T03:04:43.805Z,57.92
2023-11-23T03:05:04.274Z,58.33
2023-11-23T03:05:24.891Z,58.52
2023-11-23T03:05:45.484Z,58.54
2023-11-23T03:06:06.060Z,58.61
2023-11-23T03:06:26.605Z,58.71
2023-11-23T03:06:47.176Z,58.42
2023-11-23T03:07:07.771Z,58.02
2023-11-23T03:07:28.292Z,58.37
2023-11-23T03:07:48.887Z,58.33
2023-11-23T03:08:09.434Z,58.4
2023-11-23T03:08:30.010Z,57.99
2023-11-23T03:08:50.630Z,58.14
2023-11-23T03:09:11.230Z,57.86
2023-11-23T03:09:31.729Z,57.81
2023-11-23T03:09:52.351Z,57.94
2023-11-23T03:10:12.901Z,58.39
2023-11-23T03:10:33.441Z,57.71
2023-11-23T03:10:54.015Z,57.87
2023-11-23T03:11:14.584Z,57.8
2023-11-23T03:11:35.161Z,57.71
2023-11-23T03:11:55.774Z,58.25
2023-11-23T03:12:16.435Z,58.4
2023-11-23T03:12:36.895Z,58.32
2023-11-23T03:12:57.489Z,58.03
2023-11-23T03:13:18.026Z,58.18
2023-11-23T03:13:38.596Z,57.86
2023-11-23T03:13:59.171Z,57.55
2023-11-23T03:14:19.758Z,57.52
2023-11-23T03:14:40.314Z,57.85
2023-11-23T03:15:00.934Z,57.72
2023-11-23T03:15:21.563Z,57.46
2023-11-23T03:15:42.040Z,57.71
2023-11-23T03:16:02.598Z,57.86
2023-11-23T03:16:23.201Z,57.67
2023-11-23T03:16:43.749Z,57.81
2023-11-23T03:17:04.372Z,57.95
2023-11-23T03:17:24.972Z,57.76
2023-11-23T03:17:45.596Z,57.71
2023-11-23T03:18:06.185Z,57.91
2023-11-23T03:18:26.736Z,57.88
2023-11-23T03:18:47.319Z,57.8
2023-11-23T03:19:07.864Z,57.79
2023-11-23T03:19:28.324Z,58.19
2023-11-23T03:19:48.919Z,58.52
2023-11-23T03:20:09.477Z,57.99
2023-11-23T03:20:30.079Z,57.75
2023-11-23T03:20:50.660Z,58.07
2023-11-23T03:21:11.254Z,58.5
2023-11-23T03:21:31.810Z,58.52
2023-11-23T03:21:52.435Z,58.59
2023-11-23T03:22:12.933Z,58.81
2023-11-23T03:22:33.468Z,58.78
2023-11-23T03:22:54.040Z,58.76
2023-11-23T03:23:14.622Z,58.44
2023-11-23T03:23:35.208Z,58.57
2023-11-23T03:23:55.773Z,58.46
2023-11-23T03:24:16.410Z,58.53
2023-11-23T03:24:36.955Z,58.64
2023-11-23T03:24:57.487Z,58.94
2023-11-23T03:25:18.088Z,58.6
2023-11-23T03:25:38.625Z,58.51
2023-11-23T03:25:59.198Z,58.79
2023-11-23T03:26:19.795Z,58.47
2023-11-23T03:26:40.384Z,58.42
2023-11-23T03:27:00.932Z,58.3
2023-11-23T03:27:21.545Z,58.28
2023-11-23T03:27:42.100Z,58.17
2023-11-23T03:28:02.624Z,58.31
2023-11-23T03:28:23.206Z,58.4
2023-11-23T03:28:43.782Z,58.48
2023-11-23T03:29:04.395Z,58.38
2023-11-23T03:29:24.962Z,58.57
2023-11-23T03:29:45.528Z,58.97
2023-11-23T03:30:06.119Z,58.89
2023-11-23T03:30:26.712Z,58.73
2023-11-23T03:30:47.204Z,59.1
2023-11-23T03:31:07.822Z,58.87
2023-11-23T03:31:28.407Z,58.88
2023-11-23T03:31:48.957Z,59.19
2023-11-23T03:32:09.533Z,59.05
2023-11-23T03:32:30.101Z,58.92
2023-11-23T03:32:50.755Z,58.73
2023-11-23T03:33:11.620Z,58.62
2023-11-23T03:33:31.915Z,58.51
2023-11-23T03:33:52.353Z,58.53
2023-11-23T03:34:13.053Z,58.47
2023-11-23T03:34:33.536Z,58.7
2023-11-23T03:34:54.118Z,58.78
2023-11-23T03:35:14.655Z,58.59
2023-11-23T03:35:35.286Z,58.69
2023-11-23T03:35:55.836Z,58.77
2023-11-23T03:36:16.405Z,58.84
2023-11-23T03:36:36.988Z,59.33
2023-11-23T03:36:57.541Z,59.59
2023-11-23T03:37:18.097Z,59.46
2023-11-23T03:37:38.688Z,59.28
2023-11-23T03:37:59.270Z,59.45
2023-11-23T03:38:19.840Z,59.48
2023-11-23T03:38:40.372Z,59.46
2023-11-23T03:39:00.992Z,59.44
2023-11-23T03:39:21.765Z,59.52
2023-11-23T03:39:42.108Z,59.43
2023-11-23T03:40:02.677Z,59.26
2023-11-23T03:40:23.231Z,59.07
2023-11-23T03:40:43.820Z,59.6
2023-11-23T03:41:04.384Z,59.39
2023-11-23T03:41:25.010Z,59.31
2023-11-23T03:41:45.582Z,59.27
2023-11-23T03:42:06.127Z,59.21
2023-11-23T03:42:26.750Z,59.31
2023-11-23T03:42:47.288Z,59.34
2023-11-23T03:43:07.837Z,59.54
2023-11-23T03:43:28.392Z,59.54
2023-11-23T03:43:48.954Z,59.24
2023-11-23T03:44:09.554Z,59.13
2023-11-23T03:44:30.104Z,58.96
2023-11-23T03:44:50.719Z,59.37
2023-11-23T03:45:11.279Z,59.62
2023-11-23T03:45:31.861Z,59.81
2023-11-23T03:45:52.424Z,59.53
2023-11-23T03:46:13.025Z,59.76
2023-11-23T03:46:33.539Z,59.8
2023-11-23T03:46:54.156Z,60.16
2023-11-23T03:47:14.686Z,60.15
2023-11-23T03:47:35.319Z,60.04
2023-11-23T03:47:55.887Z,60.1
2023-11-23T03:48:16.522Z,60.07
2023-11-23T03:48:37.017Z,60.46
2023-11-23T03:48:57.577Z,60.49
2023-11-23T03:49:18.140Z,60.34
2023-11-23T03:49:38.688Z,60.39
2023-11-23T03:49:59.314Z,60.42
2023-11-23T03:50:19.899Z,60.69
2023-11-23T03:50:40.437Z,60.74
2023-11-23T03:51:01.084Z,60.75
2023-11-23T03:51:21.625Z,60.48
2023-11-23T03:51:42.149Z,60.56
2023-11-23T03:52:02.709Z,60.7
2023-11-23T03:52:23.287Z,60.5
2023-11-23T03:52:43.846Z,60.54
2023-11-23T03:53:04.409Z,60.53
2023-11-23T03:53:25.023Z,60.36
2023-11-23T03:53:45.621Z,60.14
2023-11-23T03:54:06.202Z,60.08
2023-11-23T03:54:26.788Z,60.46
2023-11-23T03:54:47.280Z,60.11
2023-11-23T03:55:07.891Z,60.24
2023-11-23T03:55:28.461Z,60.36
2023-11-23T03:55:49.020Z,60.36
2023-11-23T03:56:09.575Z,60.21
2023-11-23T03:56:46.640Z,59.96
2023-11-23T03:57:07.252Z,59.86
2023-11-23T03:57:27.766Z,60.08
2023-11-23T03:57:48.364Z,60.05
2023-11-23T03:58:08.921Z,60.13
2023-11-23T03:58:29.478Z,60.25
2023-11-23T03:58:50.099Z,60.32
2023-11-23T03:59:10.783Z,60.34
2023-11-23T03:59:31.188Z,60.26
2023-11-23T03:59:51.816Z,60.63
2023-11-23T04:00:12.360Z,60.31
2023-11-23T04:00:33.085Z,60.19
2023-11-23T04:00:53.503Z,60.06
2023-11-23T04:01:14.099Z,60.12
2023-11-23T04:01:34.722Z,59.92
2023-11-23T04:01:55.278Z,60.16
2023-11-23T04:02:15.997Z,60.24
2023-11-23T04:02:36.377Z,60.35
2023-11-23T04:02:56.950Z,60.14
2023-11-23T04:03:17.588Z,60.44
2023-11-23T04:03:38.138Z,60.77
2023-11-23T04:03:58.649Z,60.65
2023-11-23T04:04:19.284Z,60.54
2023-11-23T04:04:39.810Z,60.83
2023-11-23T04:05:00.411Z,61.1
2023-11-23T04:05:20.974Z,60.89
2023-11-23T04:05:41.509Z,60.71
2023-11-23T04:06:02.150Z,60.88
2023-11-23T04:06:22.721Z,61.05
2023-11-23T04:06:43.215Z,61.09
2023-11-23T04:07:03.784Z,60.89
2023-11-23T04:07:24.383Z,60.78
2023-11-23T04:07:44.959Z,60.63
2023-11-23T04:08:05.516Z,60.87
2023-11-23T04:08:26.112Z,60.9
2023-11-23T04:08:46.718Z,60.87
2023-11-23T04:09:07.297Z,61.41
2023-11-23T04:09:27.852Z,61.51
2023-11-23T04:09:48.384Z,61.64
2023-11-23T04:10:08.993Z,61.65
2023-11-23T04:10:29.523Z,61.54
2023-11-23T04:10:50.081Z,61.5
2023-11-23T04:11:10.692Z,61.54
2023-11-23T04:11:31.251Z,61.49
2023-11-23T04:12:12.474Z,61.56
2023-11-23T04:12:32.978Z,61.25
2023-11-23T04:12:53.570Z,61.18
2023-11-23T04:13:14.113Z,61.23
2023-11-23T04:13:34.742Z,61.48
2023-11-23T04:13:55.250Z,61.62
2023-11-23T04:14:15.805Z,61.43
2023-11-23T04:14:36.409Z,61.51
2023-11-23T04:14:56.978Z,61.18
2023-11-23T04:15:17.609Z,61.02
2023-11-23T04:15:38.146Z,61.12
2023-11-23T04:15:58.671Z,61.35
2023-11-23T04:16:19.352Z,61.1
2023-11-23T04:16:39.878Z,61.15
2023-11-23T04:17:00.471Z,61.35
2023-11-23T04:17:20.971Z,61.44
2023-11-23T04:17:41.619Z,61.18
2023-11-23T04:18:02.179Z,61.11
2023-11-23T04:18:22.723Z,61.1
2023-11-23T04:18:43.627Z,61.05
2023-11-23T04:19:04.082Z,61.16
2023-11-23T04:19:24.400Z,61.12
2023-11-23T04:19:44.977Z,61.07
2023-11-23T04:20:05.546Z,61.35
2023-11-23T04:20:26.167Z,61.46
2023-11-23T04:20:46.713Z,61.59
2023-11-23T04:21:07.352Z,61.76
2023-11-23T04:21:27.904Z,61.72
2023-11-23T04:21:48.447Z,61.67
2023-11-23T04:22:08.974Z,61.65
2023-11-23T04:22:29.537Z,61.86
2023-11-23T04:22:50.160Z,61.59
2023-11-23T04:23:10.717Z,61.65
2023-11-23T04:23:31.292Z,61.63
2023-11-23T04:23:51.847Z,61.85
2023-11-23T04:24:12.425Z,62
2023-11-23T04:24:32.998Z,62.2
2023-11-23T04:24:53.590Z,62.46
2023-11-23T04:25:14.291Z,62.19
2023-11-23T04:25:34.702Z,62.2
2023-11-23T04:25:55.272Z,61.95
2023-11-23T04:26:15.849Z,61.78
2023-11-23T04:26:36.431Z,61.76
2023-11-23T04:26:57.002Z,61.81
2023-11-23T04:27:17.624Z,61.84
2023-11-23T04:27:38.156Z,61.73
2023-11-23T04:27:58.738Z,61.87
2023-11-23T04:28:19.350Z,62.14